Time;durP1;ratioP1;P1;durP2;ratioP2;P2;SDS_P1;SDS_P2;PMS_P1;PMS_P2;Temp;Humidity;BMP_temperature;BMP_pressure;BME280_temperature;BME280_humidity;BME280_pressure;Samples;Min_cycle;Max_cycle;Signal;HPM_P1;HPM_P2
2021/12/03 00:00:40;;;;;;;;;15.20;15.20;;;;;7.59;57.70;100944.59;2072613;28;48051;-50
2021/12/03 00:01:41;;;;;;;;;12.80;12.80;;;;;7.58;57.81;100945.47;2069640;28;48450;-51
2021/12/03 00:02:42;;;;;;;;;18.00;16.75;;;;;7.56;57.46;100943.75;2072406;28;47278;-51
2021/12/03 00:03:43;;;;;;;;;13.50;12.75;;;;;7.58;57.58;100944.59;2068412;28;47274;-48
2021/12/03 00:04:44;;;;;;;;;13.20;13.20;;;;;7.57;57.59;100941.09;2072916;28;47277;-50
2021/12/03 00:05:45;;;;;;;;;13.00;11.00;;;;;7.57;57.50;100946.38;2072810;28;47406;-49
2021/12/03 00:06:45;;;;;;;;;13.20;13.20;;;;;7.56;57.63;100941.97;2072646;28;48325;-53
2021/12/03 00:07:46;;;;;;;;;15.00;12.25;;;;;7.57;57.72;100954.28;2072349;28;47271;-50
2021/12/03 00:08:47;;;;;;;;;12.50;12.50;;;;;7.58;57.55;100945.47;2072582;28;48343;-53
2021/12/03 00:09:48;;;;;;;;;15.75;14.75;;;;;7.57;57.65;100933.16;2072450;28;46884;-50
2021/12/03 00:10:54;;;;;;;;;13.75;13.50;;;;;7.56;57.81;100931.41;2071901;28;48300;-52
2021/12/03 00:11:54;;;;;;;;;16.40;15.60;;;;;7.58;57.86;100926.13;2072775;28;47223;-53
2021/12/03 00:12:56;;;;;;;;;16.25;15.00;;;;;7.57;57.31;100935.81;2072004;28;48007;-50
2021/12/03 00:13:56;;;;;;;;;14.80;14.80;;;;;7.57;58.01;100938.44;2072389;28;47239;-50
2021/12/03 00:14:57;;;;;;;;;14.25;13.25;;;;;7.56;57.59;100928.78;2072720;28;47347;-53
2021/12/03 00:15:58;;;;;;;;;17.25;14.50;;;;;7.57;57.53;100938.44;2069480;28;47435;-51
2021/12/03 00:16:59;;;;;;;;;15.00;15.00;;;;;7.56;57.68;100939.34;2072062;28;46406;-51
2021/12/03 00:18:00;;;;;;;;;17.75;14.25;;;;;7.57;57.61;100942.84;2071475;28;47223;-51
2021/12/03 00:19:01;;;;;;;;;15.50;13.75;;;;;7.56;57.71;100947.25;2068971;28;48158;-53
2021/12/03 00:20:04;;;;;;;;;14.40;12.20;;;;;7.57;57.50;100950.78;2072036;28;47509;-48
2021/12/03 00:21:08;;;;;;;;;14.00;13.40;;;;;7.56;57.63;100946.38;2067882;28;47454;-48
2021/12/03 00:22:08;;;;;;;;;13.20;13.20;;;;;7.55;57.88;100953.44;2072456;28;47113;-51
2021/12/03 00:23:09;;;;;;;;;14.00;12.75;;;;;7.56;57.73;100955.19;2072327;28;47275;-49
2021/12/03 00:24:10;;;;;;;;;18.00;15.60;;;;;7.56;57.65;100946.38;2072208;28;48244;-49
2021/12/03 00:25:10;;;;;;;;;14.00;12.25;;;;;7.55;58.01;100945.50;2071370;28;48466;-51
2021/12/03 00:26:11;;;;;;;;;14.25;14.25;;;;;7.57;57.69;100953.41;2072491;28;48108;-52
2021/12/03 00:27:11;;;;;;;;;17.00;16.00;;;;;7.55;57.64;100947.28;2072663;28;46395;-52
2021/12/03 00:28:12;;;;;;;;;16.25;14.00;;;;;7.56;58.03;100951.66;2072158;28;47641;-47
2021/12/03 00:29:12;;;;;;;;;16.00;15.00;;;;;7.56;57.77;100944.63;2072838;28;48271;-50
2021/12/03 00:30:15;;;;;;;;;10.25;10.00;;;;;7.56;57.93;100949.91;2069662;28;47952;-52
2021/12/03 00:31:16;;;;;;;;;12.60;12.20;;;;;7.58;57.69;100949.88;2067021;28;47291;-47
2021/12/03 00:32:17;;;;;;;;;12.60;12.60;;;;;7.57;57.93;100937.56;2072040;28;47370;-48
2021/12/03 00:33:17;;;;;;;;;16.50;15.25;;;;;7.57;57.88;100949.00;2071562;28;48081;-49
2021/12/03 00:34:18;;;;;;;;;14.50;14.50;;;;;7.58;57.57;100948.13;2072277;28;45391;-49
2021/12/03 00:35:19;;;;;;;;;14.75;13.75;;;;;7.58;57.64;100945.47;2066553;28;46207;-49
2021/12/03 00:36:19;;;;;;;;;10.40;9.40;;;;;7.59;57.91;100947.25;2063715;28;47242;-49
2021/12/03 00:37:20;;;;;;;;;12.00;12.00;;;;;7.59;57.87;100941.06;2055076;28;48150;-50
2021/12/03 00:38:21;;;;;;;;;15.50;13.25;;;;;7.60;57.82;100945.47;2063530;28;46980;-49
2021/12/03 00:39:22;;;;;;;;;14.25;13.25;;;;;7.59;57.74;100936.69;2072533;28;48023;-52
2021/12/03 00:40:26;;;;;;;;;18.80;16.40;;;;;7.60;57.86;100937.56;2070572;28;47148;-49
2021/12/03 00:41:34;;;;;;;;;14.20;14.20;;;;;7.59;57.80;100939.31;2072622;28;47675;-50
2021/12/03 00:42:35;;;;;;;;;16.00;14.00;;;;;7.60;57.65;100941.06;2071815;28;48162;-51
2021/12/03 00:43:40;;;;;;;;;14.75;14.75;;;;;7.61;57.60;100941.94;2072167;28;46861;-50
2021/12/03 00:44:40;;;;;;;;;15.00;15.00;;;;;7.60;57.72;100938.44;2070169;28;47314;-49
2021/12/03 00:45:43;;;;;;;;;14.50;13.25;;;;;7.60;57.72;100948.13;2069591;28;47683;-50
2021/12/03 00:46:43;;;;;;;;;12.00;12.00;;;;;7.60;57.55;100945.47;2072523;28;46194;-48
2021/12/03 00:47:44;;;;;;;;;11.75;10.50;;;;;7.61;57.60;100944.59;2071485;28;46792;-58
2021/12/03 00:48:47;;;;;;;;;14.75;12.00;;;;;7.60;57.73;100956.91;2072589;28;48159;-52
2021/12/03 00:49:48;;;;;;;;;15.40;15.40;;;;;7.61;57.77;100953.38;2072311;28;48403;-54
2021/12/03 00:50:49;;;;;;;;;16.25;13.75;;;;;7.61;57.78;100950.75;2072570;28;47079;-51
2021/12/03 00:51:49;;;;;;;;;12.00;12.00;;;;;7.60;57.91;100940.19;2071597;28;48300;-50
2021/12/03 00:52:50;;;;;;;;;19.00;16.75;;;;;7.60;57.80;100945.47;2070075;28;47035;-52
2021/12/03 00:53:51;;;;;;;;;17.60;16.40;;;;;7.60;57.93;100950.75;2072302;28;46667;-51
2021/12/03 00:54:52;;;;;;;;;17.80;16.60;;;;;7.59;57.85;100949.88;2072529;28;47181;-51
2021/12/03 00:55:52;;;;;;;;;18.25;17.50;;;;;7.59;58.01;100952.53;2072414;28;47942;-52
2021/12/03 00:56:53;;;;;;;;;12.25;12.25;;;;;7.60;58.02;100949.00;2072661;28;47352;-48
2021/12/03 00:57:53;;;;;;;;;17.25;17.25;;;;;7.61;57.92;100956.03;2071679;28;46890;-50
2021/12/03 00:58:54;;;;;;;;;17.25;16.25;;;;;7.61;57.75;100957.78;2072428;28;46908;-48
2021/12/03 00:59:54;;;;;;;;;20.00;18.00;;;;;7.61;58.12;100963.06;2072316;28;47943;-53
2021/12/03 01:00:55;;;;;;;;;15.25;13.25;;;;;7.62;57.96;100954.25;2072450;28;46843;-53
2021/12/03 01:01:56;;;;;;;;;17.50;15.75;;;;;7.62;57.70;100956.91;2072383;28;47193;-50
2021/12/03 01:03:00;;;;;;;;;13.50;13.50;;;;;7.63;57.66;100963.97;2071847;28;46903;-51
2021/12/03 01:04:01;;;;;;;;;13.20;13.20;;;;;7.64;57.86;100960.44;2070661;28;47305;-49
2021/12/03 01:05:03;;;;;;;;;16.00;15.50;;;;;7.64;57.97;100963.09;2070204;28;48150;-59
2021/12/03 01:06:04;;;;;;;;;18.80;16.80;;;;;7.65;57.94;100967.47;2071988;28;47717;-53
2021/12/03 01:07:05;;;;;;;;;17.00;16.20;;;;;7.65;57.95;100967.47;2072578;28;47444;-50
2021/12/03 01:08:06;;;;;;;;;16.75;15.50;;;;;7.66;57.98;100963.94;2071687;28;46972;-54
2021/12/03 01:09:06;;;;;;;;;17.00;16.20;;;;;7.66;57.95;100967.47;2071501;28;48244;-49
2021/12/03 01:10:08;;;;;;;;;17.25;17.25;;;;;7.66;57.94;100967.47;2072198;28;48017;-51
2021/12/03 01:11:10;;;;;;;;;14.60;14.40;;;;;7.67;57.71;100961.28;2070246;28;46190;-50
2021/12/03 01:12:11;;;;;;;;;17.80;16.80;;;;;7.68;58.08;100965.69;2072152;28;48146;-53
2021/12/03 01:13:11;;;;;;;;;14.00;12.50;;;;;7.68;57.72;100967.44;2071665;28;47119;-51
2021/12/03 01:14:11;;;;;;;;;11.50;11.50;;;;;7.68;57.63;100970.97;2071191;28;47418;-53
2021/12/03 01:15:16;;;;;;;;;12.00;12.00;;;;;7.68;57.65;100970.97;2065403;28;48307;-50
2021/12/03 01:16:17;;;;;;;;;16.80;15.80;;;;;7.69;57.94;100971.84;2070115;28;47071;-50
2021/12/03 01:17:17;;;;;;;;;12.00;12.00;;;;;7.68;57.76;100965.69;2072001;28;47993;-49
2021/12/03 01:18:18;;;;;;;;;16.00;13.00;;;;;7.69;58.09;100971.84;2071486;28;46838;-50
2021/12/03 01:19:18;;;;;;;;;16.75;15.00;;;;;7.70;57.75;100978.00;2072215;28;48147;-50
2021/12/03 01:20:21;;;;;;;;;11.75;10.75;;;;;7.70;57.74;100973.59;2072194;28;47256;-55
2021/12/03 01:21:22;;;;;;;;;15.80;15.80;;;;;7.70;57.77;100973.59;2071196;28;46077;-52
2021/12/03 01:22:22;;;;;;;;;15.40;14.80;;;;;7.71;57.75;100977.09;2071587;28;47253;-52
2021/12/03 01:23:23;;;;;;;;;14.25;12.25;;;;;7.70;57.79;100976.22;2072328;28;47155;-52
2021/12/03 01:24:24;;;;;;;;;15.75;15.25;;;;;7.70;57.99;100978.88;2063126;28;47370;-48
2021/12/03 01:25:25;;;;;;;;;16.75;15.50;;;;;7.72;57.78;100976.22;2063382;28;48737;-51
2021/12/03 01:26:26;;;;;;;;;18.80;16.00;;;;;7.70;57.72;100970.94;2070936;28;47255;-51
2021/12/03 01:27:27;;;;;;;;;13.75;13.75;;;;;7.72;57.39;100979.75;2071710;28;48141;-52
2021/12/03 01:28:27;;;;;;;;;16.00;13.50;;;;;7.72;57.56;100970.94;2071860;28;47841;-49
2021/12/03 01:29:28;;;;;;;;;16.25;14.75;;;;;7.72;57.79;100976.22;2072359;28;47055;-49
2021/12/03 01:30:31;;;;;;;;;13.50;13.50;;;;;7.72;57.80;100978.88;2072029;28;47269;-52
2021/12/03 01:31:31;;;;;;;;;17.20;16.20;;;;;7.72;57.62;100976.22;2072267;28;47184;-48
2021/12/03 01:32:32;;;;;;;;;15.75;15.75;;;;;7.71;57.48;100980.63;2071451;28;47271;-53
2021/12/03 01:33:33;;;;;;;;;15.50;14.50;;;;;7.71;57.62;100980.63;2072198;28;48001;-47
2021/12/03 01:34:33;;;;;;;;;14.50;12.50;;;;;7.72;57.19;100982.38;2071549;28;47033;-53
2021/12/03 01:35:36;;;;;;;;;15.25;13.25;;;;;7.72;57.63;100985.03;2071951;28;47514;-50
2021/12/03 01:36:37;;;;;;;;;17.00;15.80;;;;;7.71;57.45;100985.91;2071783;28;47112;-49
2021/12/03 01:37:38;;;;;;;;;13.25;12.00;;;;;7.72;57.65;100985.03;2071291;28;48005;-50
2021/12/03 01:38:38;;;;;;;;;18.00;15.20;;;;;7.71;57.74;100985.91;2071447;28;48507;-50
2021/12/03 01:39:39;;;;;;;;;13.25;12.75;;;;;7.72;57.83;100978.88;2069707;28;48606;-51
2021/12/03 01:40:41;;;;;;;;;15.00;12.25;;;;;7.72;57.86;100978.88;2070019;28;48161;-51
2021/12/03 01:41:41;;;;;;;;;16.80;14.20;;;;;7.72;57.73;100984.16;2071958;28;48416;-54
2021/12/03 01:42:44;;;;;;;;;17.00;14.00;;;;;7.73;57.76;100977.97;2071218;28;47382;-52
2021/12/03 01:43:45;;;;;;;;;16.00;13.60;;;;;7.73;57.77;100981.50;2071312;28;46227;-51
2021/12/03 01:44:46;;;;;;;;;15.75;15.75;;;;;7.73;57.71;100986.78;2072298;28;47104;-51
2021/12/03 01:45:46;;;;;;;;;15.50;15.50;;;;;7.73;57.52;100978.84;2072216;28;47662;-54
2021/12/03 01:46:47;;;;;;;;;17.25;14.25;;;;;7.74;57.76;100987.66;2072072;28;48108;-53
2021/12/03 01:47:49;;;;;;;;;14.50;13.75;;;;;7.74;57.95;100985.00;2071710;28;48055;-50
2021/12/03 01:48:49;;;;;;;;;12.60;12.40;;;;;7.74;57.68;100982.38;2070707;28;48102;-51
2021/12/03 01:49:50;;;;;;;;;13.75;12.75;;;;;7.74;57.68;100982.38;2072105;28;48060;-51
2021/12/03 01:50:51;;;;;;;;;12.25;12.00;;;;;7.74;57.82;100985.00;2072483;28;48255;-48
2021/12/03 01:51:51;;;;;;;;;13.00;13.00;;;;;7.75;57.70;100986.75;2072138;28;48598;-52
2021/12/03 01:52:52;;;;;;;;;13.00;12.00;;;;;7.74;57.76;100983.25;2068164;28;48277;-54
2021/12/03 01:53:53;;;;;;;;;16.75;15.75;;;;;7.74;57.62;100983.25;2069701;28;47510;-52
2021/12/03 01:54:54;;;;;;;;;15.40;12.60;;;;;7.75;57.67;100984.13;2071387;28;46379;-51
2021/12/03 01:55:58;;;;;;;;;8.75;8.75;;;;;7.75;57.59;100990.31;2071897;28;48226;-52
2021/12/03 01:56:59;;;;;;;;;16.20;13.00;;;;;7.75;57.69;100992.97;2072126;28;47883;-50
2021/12/03 01:58:00;;;;;;;;;11.00;11.00;;;;;7.75;57.58;101003.53;2068861;28;47946;-50
2021/12/03 01:59:00;;;;;;;;;15.50;15.25;;;;;7.75;57.85;100998.25;2070027;28;46156;-54
2021/12/03 02:00:02;;;;;;;;;10.75;10.75;;;;;7.75;57.79;101000.88;2068768;28;47224;-52
2021/12/03 02:01:08;;;;;;;;;14.60;12.40;;;;;7.76;57.96;100996.47;2072011;28;48189;-51
2021/12/03 02:02:09;;;;;;;;;13.80;13.80;;;;;7.76;57.62;100992.06;2064834;28;47987;-52
2021/12/03 02:03:13;;;;;;;;;15.50;15.50;;;;;7.76;57.59;100992.06;2071441;28;47226;-51
2021/12/03 02:04:14;;;;;;;;;14.60;14.60;;;;;7.77;57.85;100987.66;2071711;28;47747;-51
2021/12/03 02:05:15;;;;;;;;;16.75;16.75;;;;;7.77;57.97;100991.19;2066133;28;47303;-48
2021/12/03 02:06:15;;;;;;;;;16.00;15.00;;;;;7.78;57.89;100987.66;2070190;28;48284;-51
2021/12/03 02:07:16;;;;;;;;;14.25;13.25;;;;;7.78;57.93;100984.13;2071869;28;45524;-51
2021/12/03 02:08:17;;;;;;;;;12.25;12.25;;;;;7.79;57.68;100994.69;2071543;28;46256;-51
2021/12/03 02:09:17;;;;;;;;;13.50;13.50;;;;;7.80;57.76;100995.56;2063452;28;47381;-50
2021/12/03 02:10:20;;;;;;;;;15.75;15.75;;;;;7.80;57.96;100985.00;2055467;28;47057;-48
2021/12/03 02:11:21;;;;;;;;;15.80;15.80;;;;;7.81;57.81;100992.03;2070359;28;48637;-52
2021/12/03 02:12:22;;;;;;;;;14.80;14.20;;;;;7.80;57.76;100990.28;2071679;28;45520;-50
2021/12/03 02:13:23;;;;;;;;;12.25;12.25;;;;;7.81;57.86;100992.03;2070428;28;47540;-52
2021/12/03 02:14:24;;;;;;;;;12.75;12.75;;;;;7.81;57.81;100984.09;2071935;28;48190;-49
2021/12/03 02:15:25;;;;;;;;;13.50;13.50;;;;;7.82;58.00;100993.78;2072229;28;48095;-51
2021/12/03 02:16:26;;;;;;;;;15.80;13.40;;;;;7.83;57.74;100987.59;2071807;28;47326;-51
2021/12/03 02:17:26;;;;;;;;;13.25;13.25;;;;;7.83;57.93;100987.59;2067470;28;47615;-49
2021/12/03 02:18:27;;;;;;;;;17.50;15.75;;;;;7.83;57.86;100980.56;2071697;28;48041;-53
2021/12/03 02:19:29;;;;;;;;;15.00;15.00;;;;;7.83;58.06;100982.31;2071722;28;48267;-50
2021/12/03 02:20:29;;;;;;;;;13.40;11.60;;;;;7.84;57.54;100982.31;2071773;28;47247;-51
2021/12/03 02:21:30;;;;;;;;;13.50;11.50;;;;;7.85;57.85;100980.53;2071073;28;46602;-50
2021/12/03 02:22:31;;;;;;;;;15.50;12.50;;;;;7.84;57.91;100981.44;2070341;28;48362;-53
2021/12/03 02:23:31;;;;;;;;;11.00;11.00;;;;;7.84;58.25;100982.31;2071781;28;47947;-49
2021/12/03 02:24:33;;;;;;;;;13.75;12.25;;;;;7.85;57.72;100980.53;2069402;28;46204;-49
2021/12/03 02:25:33;;;;;;;;;10.00;10.00;;;;;7.85;57.82;100981.41;2071845;28;48552;-50
2021/12/03 02:26:34;;;;;;;;;10.25;9.50;;;;;7.86;57.90;100982.28;2071872;28;47395;-52
2021/12/03 02:27:34;;;;;;;;;11.00;11.00;;;;;7.87;57.91;100979.63;2071358;28;48242;-51
2021/12/03 02:28:39;;;;;;;;;13.25;12.25;;;;;7.86;57.57;100980.53;2071795;28;47196;-51
2021/12/03 02:29:39;;;;;;;;;11.80;11.80;;;;;7.87;57.46;100982.28;2071937;28;48443;-50
2021/12/03 02:30:41;;;;;;;;;11.50;11.50;;;;;7.88;57.72;100983.19;2068932;28;48054;-53
2021/12/03 02:31:41;;;;;;;;;11.40;10.00;;;;;7.88;57.87;100988.47;2069600;28;48551;-51
2021/12/03 02:32:42;;;;;;;;;12.50;12.50;;;;;7.88;57.77;100984.06;2071285;28;48342;-48
2021/12/03 02:33:43;;;;;;;;;12.40;12.20;;;;;7.89;57.49;100992.88;2071471;28;47403;-48
2021/12/03 02:34:44;;;;;;;;;15.75;12.50;;;;;7.89;57.74;100984.94;2066667;28;48124;-51
2021/12/03 02:35:45;;;;;;;;;12.25;12.25;;;;;7.89;57.76;100984.94;2068084;28;47136;-49
2021/12/03 02:36:45;;;;;;;;;11.60;10.80;;;;;7.88;57.80;100980.56;2069199;28;46839;-48
2021/12/03 02:37:46;;;;;;;;;12.00;12.00;;;;;7.90;57.65;100978.78;2071040;28;47487;-49
2021/12/03 02:38:47;;;;;;;;;11.50;9.75;;;;;7.90;57.66;100977.00;2069849;28;46347;-47
2021/12/03 02:39:48;;;;;;;;;11.00;11.00;;;;;7.89;57.76;100980.53;2067311;28;47878;-54
2021/12/03 02:40:50;;;;;;;;;11.50;10.25;;;;;7.91;57.82;100981.41;2071942;28;48060;-48
2021/12/03 02:41:50;;;;;;;;;11.00;11.00;;;;;7.92;57.64;100982.28;2071826;28;47272;-48
2021/12/03 02:42:52;;;;;;;;;16.00;11.50;;;;;7.91;57.60;100986.69;2071273;28;46908;-48
2021/12/03 02:43:53;;;;;;;;;28.00;24.40;;;;;7.92;57.75;100982.28;2071625;28;47233;-53
2021/12/03 02:44:53;;;;;;;;;16.25;16.25;;;;;7.91;57.68;100984.03;2071950;28;46088;-50
2021/12/03 02:45:56;;;;;;;;;16.00;15.00;;;;;7.92;57.58;100984.91;2071497;28;47712;-51
2021/12/03 02:46:56;;;;;;;;;15.20;11.80;;;;;7.93;57.50;100986.66;2070958;28;48350;-51
2021/12/03 02:48:02;;;;;;;;;12.00;12.00;;;;;7.92;57.45;100985.78;2071105;28;47543;-50
2021/12/03 02:49:03;;;;;;;;;15.60;10.60;;;;;7.93;57.48;100986.66;2071912;28;47143;-51
2021/12/03 02:50:05;;;;;;;;;8.75;8.75;;;;;7.94;57.63;100983.13;2070318;28;45981;-50
2021/12/03 02:51:08;;;;;;;;;6.80;6.80;;;;;7.95;57.51;100976.97;2070648;28;47007;-50
2021/12/03 02:52:10;;;;;;;;;5.40;4.20;;;;;7.94;57.47;100969.91;2068631;28;47542;-50
2021/12/03 02:53:10;;;;;;;;;14.60;10.40;;;;;7.95;57.55;100979.59;2071333;28;47730;-51
2021/12/03 02:54:11;;;;;;;;;13.00;10.75;;;;;7.95;57.51;100969.91;2072508;28;48264;-51
2021/12/03 02:55:12;;;;;;;;;9.75;9.75;;;;;7.96;57.50;100970.78;2068940;28;47405;-50
2021/12/03 02:56:13;;;;;;;;;11.40;10.00;;;;;7.97;57.72;100970.78;2072444;28;48216;-50
2021/12/03 02:57:14;;;;;;;;;11.00;9.25;;;;;7.99;57.69;100965.47;2072342;28;47374;-52
2021/12/03 02:58:14;;;;;;;;;13.00;9.00;;;;;7.98;57.67;100961.94;2070821;28;48663;-49
2021/12/03 02:59:15;;;;;;;;;7.25;6.50;;;;;8.00;57.48;100967.22;2071785;28;46531;-48
2021/12/03 03:00:18;;;;;;;;;9.00;9.00;;;;;8.00;57.40;100958.41;2065976;28;45574;-47
2021/12/03 03:01:18;;;;;;;;;9.20;9.20;;;;;8.01;57.43;100962.84;2071253;28;47415;-50
2021/12/03 03:02:19;;;;;;;;;9.25;9.25;;;;;8.02;57.57;100957.53;2071001;28;48150;-50
2021/12/03 03:03:20;;;;;;;;;12.00;11.00;;;;;8.01;57.49;100947.00;2071513;28;47862;-47
2021/12/03 03:04:21;;;;;;;;;9.00;9.00;;;;;8.01;57.57;100944.34;2071671;28;48459;-50
2021/12/03 03:05:23;;;;;;;;;10.50;8.25;;;;;8.02;57.34;100939.03;2064484;28;47977;-49
2021/12/03 03:06:25;;;;;;;;;12.40;10.40;;;;;8.02;57.42;100943.44;2071212;28;48261;-48
2021/12/03 03:07:25;;;;;;;;;11.80;9.00;;;;;8.03;57.17;100942.56;2071456;28;45362;-50
2021/12/03 03:08:27;;;;;;;;;8.75;8.75;;;;;8.01;57.46;100939.94;2070730;28;47980;-49
2021/12/03 03:09:27;;;;;;;;;10.80;8.00;;;;;8.02;57.38;100936.41;2071165;28;45485;-49
2021/12/03 03:10:31;;;;;;;;;9.00;8.25;;;;;8.03;57.51;100934.63;2071576;28;48066;-52
2021/12/03 03:11:31;;;;;;;;;5.80;5.80;;;;;8.03;57.17;100937.28;2071731;28;48397;-51
2021/12/03 03:12:31;;;;;;;;;10.00;9.75;;;;;8.03;57.47;100937.28;2071177;28;47274;-51
2021/12/03 03:13:33;;;;;;;;;8.25;8.25;;;;;8.03;57.25;100935.50;2069887;28;47114;-50
2021/12/03 03:14:33;;;;;;;;;9.00;6.40;;;;;8.03;57.42;100938.16;2070733;28;46351;-52
2021/12/03 03:15:36;;;;;;;;;10.75;10.75;;;;;8.03;57.50;100942.56;2068809;28;48133;-51
2021/12/03 03:16:37;;;;;;;;;8.80;8.80;;;;;8.04;57.51;100942.53;2071127;28;48052;-47
2021/12/03 03:17:39;;;;;;;;;8.75;8.75;;;;;8.05;57.39;100936.38;2071103;28;48419;-49
2021/12/03 03:18:39;;;;;;;;;9.80;9.80;;;;;8.05;57.29;100928.44;2069461;28;47491;-47
2021/12/03 03:19:40;;;;;;;;;12.25;10.50;;;;;8.05;57.22;100932.84;2068366;28;47852;-47
2021/12/03 03:20:43;;;;;;;;;11.25;11.25;;;;;8.06;57.40;100930.19;2066490;28;46491;-50
2021/12/03 03:21:46;;;;;;;;;11.20;9.40;;;;;8.07;57.16;100939.00;2071072;28;47957;-49
2021/12/03 03:22:48;;;;;;;;;12.40;12.20;;;;;8.05;57.39;100931.09;2071064;28;48091;-48
2021/12/03 03:23:49;;;;;;;;;10.80;9.60;;;;;8.07;57.39;100933.72;2071512;28;47973;-50
2021/12/03 03:24:51;;;;;;;;;9.50;9.25;;;;;8.07;57.48;100934.59;2070589;28;48161;-49
2021/12/03 03:25:53;;;;;;;;;7.00;5.80;;;;;8.08;57.45;100930.19;2070006;28;48098;-50
2021/12/03 03:26:54;;;;;;;;;9.00;9.00;;;;;8.09;57.41;100930.16;2068413;28;48073;-52
2021/12/03 03:27:54;;;;;;;;;10.75;10.25;;;;;8.10;57.42;100933.69;2068211;28;46403;-50
2021/12/03 03:28:57;;;;;;;;;10.25;10.25;;;;;8.10;57.42;100933.69;2070055;28;48593;-47
2021/12/03 03:29:58;;;;;;;;;11.40;10.80;;;;;8.10;57.45;100934.56;2069362;28;48600;-47
2021/12/03 03:31:00;;;;;;;;;10.00;10.00;;;;;8.09;57.30;100935.44;2063499;28;48000;-47
2021/12/03 03:32:02;;;;;;;;;10.20;10.00;;;;;8.09;57.27;100937.22;2066080;28;47929;-51
2021/12/03 03:33:03;;;;;;;;;9.40;9.40;;;;;8.09;57.19;100935.44;2068888;28;47232;-52
2021/12/03 03:34:05;;;;;;;;;11.00;9.50;;;;;8.10;57.26;100938.97;2069669;28;47380;-48
2021/12/03 03:35:06;;;;;;;;;12.40;10.40;;;;;8.09;57.36;100934.56;2071584;28;47285;-47
2021/12/03 03:36:07;;;;;;;;;10.20;10.20;;;;;8.07;57.28;100937.22;2071452;28;47548;-48
2021/12/03 03:37:08;;;;;;;;;9.50;9.00;;;;;8.08;57.29;100936.34;2070493;28;46204;-48
2021/12/03 03:38:09;;;;;;;;;11.00;11.00;;;;;8.07;57.40;100937.22;2070931;28;47983;-49
2021/12/03 03:39:12;;;;;;;;;12.00;10.00;;;;;8.08;57.30;100927.53;2071534;28;47825;-50
2021/12/03 03:40:13;;;;;;;;;10.60;9.80;;;;;8.09;57.39;100939.84;2069673;28;47465;-49
2021/12/03 03:41:14;;;;;;;;;10.75;10.00;;;;;8.07;57.25;100934.59;2071497;28;46086;-49
2021/12/03 03:42:14;;;;;;;;;8.00;8.00;;;;;8.08;57.24;100938.97;2070903;28;45508;-50
2021/12/03 03:43:17;;;;;;;;;10.00;8.25;;;;;8.08;57.16;100938.09;2070365;28;47262;-47
2021/12/03 03:44:18;;;;;;;;;9.60;9.60;;;;;8.09;57.16;100931.94;2070823;28;47162;-50
2021/12/03 03:45:21;;;;;;;;;11.75;10.25;;;;;8.09;57.02;100940.72;2071501;28;46012;-49
2021/12/03 03:46:21;;;;;;;;;11.20;9.80;;;;;8.09;57.02;100938.09;2071342;28;48477;-52
2021/12/03 03:47:22;;;;;;;;;8.50;8.00;;;;;8.08;57.21;100928.41;2071312;28;47361;-51
2021/12/03 03:48:24;;;;;;;;;12.75;12.00;;;;;8.08;57.20;100930.19;2071171;28;46219;-52
2021/12/03 03:49:24;;;;;;;;;10.20;9.80;;;;;8.08;57.20;100933.69;2071517;28;47801;-52
2021/12/03 03:50:26;;;;;;;;;13.00;10.50;;;;;8.09;57.20;100938.09;2071336;28;47182;-51
2021/12/03 03:51:27;;;;;;;;;8.80;8.80;;;;;8.08;57.20;100938.97;2071437;28;47438;-52
2021/12/03 03:52:28;;;;;;;;;10.50;10.50;;;;;8.09;57.43;100943.38;2070455;28;48595;-51
2021/12/03 03:53:28;;;;;;;;;10.00;8.40;;;;;8.09;57.22;100945.13;2071483;28;47254;-48
2021/12/03 03:54:29;;;;;;;;;14.50;10.00;;;;;8.08;57.30;100946.03;2062488;28;46984;-50
2021/12/03 03:55:31;;;;;;;;;11.00;9.25;;;;;8.08;57.25;100938.97;2062733;28;47016;-53
2021/12/03 03:56:33;;;;;;;;;10.60;10.00;;;;;8.09;57.15;100937.22;2071290;28;46045;-51
2021/12/03 03:57:34;;;;;;;;;9.40;9.00;;;;;8.09;57.15;100934.56;2070895;28;47502;-51
2021/12/03 03:58:37;;;;;;;;;13.75;11.50;;;;;8.07;57.20;100931.94;2071087;28;47497;-51
2021/12/03 03:59:37;;;;;;;;;10.00;10.00;;;;;8.09;57.29;100940.72;2066502;28;47476;-50
2021/12/03 04:00:42;;;;;;;;;9.25;9.25;;;;;8.09;57.10;100931.94;2062201;28;46971;-49
2021/12/03 04:01:48;;;;;;;;;8.40;8.40;;;;;8.09;57.31;100924.00;2059587;28;47758;-50
2021/12/03 04:02:48;;;;;;;;;10.60;10.60;;;;;8.09;57.08;100919.59;2068983;28;48447;-48
2021/12/03 04:03:49;;;;;;;;;8.75;8.00;;;;;8.09;57.03;100919.59;2068514;28;48363;-48
2021/12/03 04:04:49;;;;;;;;;10.00;10.00;;;;;8.09;57.09;100918.72;2071365;28;47197;-50
2021/12/03 04:05:50;;;;;;;;;13.00;10.00;;;;;8.08;57.07;100911.66;2071119;28;48254;-52
2021/12/03 04:06:51;;;;;;;;;10.00;10.00;;;;;8.08;57.01;100919.59;2071271;28;47698;-51
2021/12/03 04:07:52;;;;;;;;;11.20;10.80;;;;;8.07;57.02;100917.84;2069790;28;47612;-48
2021/12/03 04:08:53;;;;;;;;;12.75;9.75;;;;;8.08;57.31;100920.47;2067348;28;46973;-51
2021/12/03 04:09:53;;;;;;;;;11.00;9.00;;;;;8.07;57.12;100926.66;2070792;28;47442;-49
2021/12/03 04:10:54;;;;;;;;;11.25;9.50;;;;;8.07;57.09;100920.50;2072820;28;48069;-50
2021/12/03 04:11:54;;;;;;;;;9.75;9.50;;;;;8.07;57.28;100921.38;2072737;28;47585;-51
2021/12/03 04:12:55;;;;;;;;;11.50;10.00;;;;;8.09;57.38;100921.34;2070654;28;46755;-51
2021/12/03 04:13:55;;;;;;;;;10.75;9.50;;;;;8.08;57.27;100914.31;2069585;28;46167;-48
2021/12/03 04:14:56;;;;;;;;;8.50;8.50;;;;;8.08;56.94;100915.19;2068144;28;47091;-49
2021/12/03 04:15:56;;;;;;;;;9.50;8.50;;;;;8.08;57.18;100919.59;2069236;28;48384;-49
2021/12/03 04:16:57;;;;;;;;;10.25;8.00;;;;;8.09;56.92;100910.78;2072609;28;46262;-51
2021/12/03 04:17:57;;;;;;;;;10.50;8.75;;;;;8.08;57.00;100907.25;2069863;28;47869;-50
2021/12/03 04:18:59;;;;;;;;;9.25;9.25;;;;;8.09;57.18;100906.38;2063739;28;47317;-47
2021/12/03 04:20:00;;;;;;;;;11.80;9.60;;;;;8.10;56.88;100909.88;2058623;28;47331;-53
2021/12/03 04:21:01;;;;;;;;;7.75;7.75;;;;;8.09;57.01;100897.56;2071473;28;47310;-56
2021/12/03 04:22:02;;;;;;;;;15.75;12.00;;;;;8.10;56.93;100907.25;2072459;28;47352;-53
2021/12/03 04:23:03;;;;;;;;;9.40;9.40;;;;;8.09;57.04;100913.41;2071490;28;46397;-49
2021/12/03 04:24:04;;;;;;;;;10.75;10.25;;;;;8.07;57.01;100908.16;2072614;28;47391;-53
2021/12/03 04:25:07;;;;;;;;;11.50;9.00;;;;;8.09;57.11;100916.06;2072346;28;46793;-49
2021/12/03 04:26:08;;;;;;;;;8.40;8.00;;;;;8.07;56.85;100920.50;2069362;28;48294;-48
2021/12/03 04:27:09;;;;;;;;;9.75;8.75;;;;;8.06;57.12;100914.34;2072834;28;48488;-51
2021/12/03 04:28:10;;;;;;;;;10.50;10.00;;;;;8.06;56.84;100922.25;2063063;28;47312;-51
2021/12/03 04:29:10;;;;;;;;;10.00;8.60;;;;;8.05;56.87;100928.44;2059842;28;47383;-51
2021/12/03 04:30:15;;;;;;;;;9.25;9.25;;;;;8.05;56.94;100924.91;2072586;28;47800;-52
2021/12/03 04:31:16;;;;;;;;;9.20;8.80;;;;;8.05;57.11;100928.44;2072323;28;45315;-51
2021/12/03 04:32:17;;;;;;;;;10.67;9.00;;;;;8.05;56.90;100932.84;2072121;28;45551;-48
2021/12/03 04:33:18;;;;;;;;;10.00;10.00;;;;;8.05;56.78;100933.72;2072061;28;47431;-48
2021/12/03 04:34:19;;;;;;;;;9.20;9.20;;;;;8.04;57.04;100931.97;2069613;28;46982;-49
2021/12/03 04:35:21;;;;;;;;;8.25;8.00;;;;;8.05;57.00;100928.44;2072285;28;46371;-48
2021/12/03 04:36:22;;;;;;;;;9.60;9.60;;;;;8.05;56.78;100924.91;2072181;28;47439;-51
2021/12/03 04:37:22;;;;;;;;;6.50;5.75;;;;;8.05;56.82;100928.44;2072142;28;47257;-52
2021/12/03 04:38:23;;;;;;;;;6.25;5.00;;;;;8.05;56.69;100915.22;2072282;28;47289;-49
2021/12/03 04:39:23;;;;;;;;;6.00;6.00;;;;;8.04;56.68;100916.13;2065710;28;47334;-52
2021/12/03 04:40:25;;;;;;;;;9.75;8.00;;;;;8.05;56.75;100911.69;2072204;28;47399;-53
2021/12/03 04:41:26;;;;;;;;;6.00;6.00;;;;;8.05;56.95;100922.28;2072865;28;47376;-48
2021/12/03 04:42:26;;;;;;;;;7.50;6.00;;;;;8.05;56.74;100928.44;2071869;28;48382;-50
2021/12/03 04:43:27;;;;;;;;;5.25;5.25;;;;;8.05;56.64;100923.16;2062910;28;47998;-53